Time;durP1;ratioP1;P1;durP2;ratioP2;P2;SDS_P1;SDS_P2;PMS_P1;PMS_P2;Temp;Humidity;BMP_temperature;BMP_pressure;BME280_temperature;BME280_humidity;BME280_pressure;Samples;Min_cycle;Max_cycle;Signal;HPM_P1;HPM_P2
2023/03/26 00:00:36;;;;;;;3.58;1.67;;;;;;;8.54;91.47;99672.44;4991096;28;20213;-81
2023/03/26 00:03:07;;;;;;;5.38;2.92;;;;;;;8.50;91.43;99666.66;4992351;28;20199;-81
2023/03/26 00:05:37;;;;;;;3.85;1.90;;;;;;;8.49;91.95;99674.97;4978848;28;20205;-80
2023/03/26 00:08:07;;;;;;;2.55;2.35;;;;;;;8.50;92.54;99668.53;4999322;28;20196;-80
2023/03/26 00:10:38;;;;;;;4.80;2.30;;;;;;;8.50;92.35;99676.63;5002771;28;20206;-79
2023/03/26 00:13:09;;;;;;;4.00;2.65;;;;;;;8.45;92.53;99677.28;4990450;28;20228;-80
2023/03/26 00:15:39;;;;;;;3.97;2.55;;;;;;;8.44;93.37;99672.09;4990762;28;20206;-80
2023/03/26 00:18:09;;;;;;;4.75;2.13;;;;;;;8.52;92.15;99677.25;4995961;28;20243;-81
2023/03/26 00:20:40;;;;;;;4.72;2.30;;;;;;;8.46;91.11;99664.63;4993783;28;20196;-80
2023/03/26 00:23:12;;;;;;;4.72;3.38;;;;;;;8.42;90.16;99672.34;4986573;28;20200;-82
2023/03/26 00:25:44;;;;;;;7.63;2.05;;;;;;;8.45;90.05;99665.66;4987402;28;20713;-82
2023/03/26 00:28:20;;;;;;;3.30;1.55;;;;;;;8.49;90.16;99677.66;4983884;28;20265;-82
2023/03/26 00:30:50;;;;;;;2.75;2.33;;;;;;;8.46;89.58;99680.81;4990224;28;20192;-82
2023/03/26 00:33:19;;;;;;;3.50;1.33;;;;;;;8.48;90.37;99673.31;4994544;28;20197;-81
2023/03/26 00:35:53;;;;;;;2.33;1.88;;;;;;;8.48;89.89;99676.00;4991412;28;20207;-82
2023/03/26 00:38:23;;;;;;;3.20;1.85;;;;;;;8.55;89.52;99679.50;4981298;28;20213;-80
2023/03/26 00:41:04;;;;;;;3.45;2.00;;;;;;;8.46;89.39;99675.41;4978187;28;20212;-82
2023/03/26 00:43:36;;;;;;;4.35;2.78;;;;;;;8.53;89.27;99681.56;4984983;28;20245;-81
2023/03/26 00:58:14;;;;;;;6.55;2.53;;;;;;;8.38;88.12;99684.56;4987210;23;20243;-73
2023/03/26 01:00:49;;;;;;;3.58;1.60;;;;;;;8.35;88.09;99687.72;4939841;29;20206;-74
2023/03/26 01:03:21;;;;;;;3.03;1.50;;;;;;;8.32;88.05;99684.63;4925578;29;20621;-75
2023/03/26 01:06:06;;;;;;;1.45;1.35;;;;;;;8.29;88.51;99670.53;4927413;29;20677;-75
2023/03/26 01:08:41;;;;;;;1.63;1.33;;;;;;;8.32;88.16;99673.84;4938286;29;20285;-75
2023/03/26 01:11:14;;;;;;;5.90;1.55;;;;;;;8.36;88.05;99678.59;4938501;29;20596;-76
2023/03/26 01:13:49;;;;;;;5.80;1.50;;;;;;;8.39;88.08;99683.53;4937004;29;20209;-74
2023/03/26 01:16:24;;;;;;;2.20;1.70;;;;;;;8.40;87.67;99695.16;4941319;29;20191;-75
2023/03/26 01:18:57;;;;;;;4.38;1.70;;;;;;;8.37;88.29;99690.19;4935704;29;20724;-74
2023/03/26 01:21:57;;;;;;;4.95;1.45;;;;;;;8.32;89.83;99696.25;4942886;29;20242;-75
2023/03/26 01:24:29;;;;;;;2.50;1.60;;;;;;;8.30;91.99;99698.31;4960617;29;20185;-77
2023/03/26 01:27:23;;;;;;;4.72;1.85;;;;;;;8.16;93.30;99684.06;4967578;28;20194;-76
2023/03/26 01:29:55;;;;;;;5.00;1.60;;;;;;;8.10;94.44;99706.47;4963444;29;20194;-76
2023/03/26 01:32:48;;;;;;;2.47;1.80;;;;;;;8.07;93.55;99708.78;4954000;29;20288;-75
2023/03/26 01:35:33;;;;;;;5.20;1.83;;;;;;;8.02;94.04;99714.81;4923905;29;20216;-74
2023/03/26 01:38:13;;;;;;;2.00;1.23;;;;;;;8.06;94.14;99704.41;4947157;29;20292;-74
2023/03/26 01:40:51;;;;;;;2.30;1.73;;;;;;;8.09;93.74;99703.97;4920027;29;20228;-74
2023/03/26 01:43:28;;;;;;;3.92;1.75;;;;;;;8.07;93.48;99715.00;4950383;29;20200;-71
2023/03/26 01:46:01;;;;;;;4.50;1.70;;;;;;;8.03;93.35;99703.00;4941067;29;20281;-74
2023/03/26 01:48:36;;;;;;;3.80;1.38;;;;;;;7.91;92.72;99699.31;4940553;29;20230;-74
2023/03/26 01:51:07;;;;;;;4.10;1.63;;;;;;;7.93;92.65;99709.88;4943635;29;20206;-78
2023/03/26 01:53:42;;;;;;;2.13;1.20;;;;;;;7.93;92.59;99701.78;4939801;29;20225;-74
2023/03/26 01:56:22;;;;;;;2.10;1.90;;;;;;;7.84;92.42;99695.84;4937225;29;20213;-74
2023/03/26 01:59:05;;;;;;;3.58;1.92;;;;;;;7.88;92.47;99699.75;4940793;29;20274;-73
2023/03/26 02:01:44;;;;;;;1.80;1.00;;;;;;;7.91;92.36;99704.69;4929538;29;20206;-74
2023/03/26 02:04:28;;;;;;;2.83;1.10;;;;;;;8.04;92.39;99710.00;4938385;29;20196;-74
2023/03/26 02:07:05;;;;;;;2.65;1.15;;;;;;;8.10;92.33;99709.16;4949421;29;20575;-75
2023/03/26 02:09:40;;;;;;;5.13;1.23;;;;;;;8.01;91.23;99702.38;4926395;29;20302;-75
2023/03/26 02:12:14;;;;;;;3.42;1.52;;;;;;;8.04;91.40;99710.00;4928698;29;20217;-75
2023/03/26 02:14:48;;;;;;;1.40;0.95;;;;;;;8.05;91.50;99706.28;4943176;29;20233;-75
2023/03/26 02:17:23;;;;;;;2.35;1.45;;;;;;;7.95;92.18;99695.13;4925810;29;20197;-74
2023/03/26 02:19:56;;;;;;;2.47;0.98;;;;;;;7.91;92.70;99693.91;4912916;29;20217;-72
2023/03/26 02:22:28;;;;;;;1.95;1.00;;;;;;;7.77;93.19;99697.72;4921272;29;20286;-74
2023/03/26 02:25:01;;;;;;;2.65;1.10;;;;;;;7.71;94.03;99703.94;4916693;29;20204;-74
2023/03/26 02:27:34;;;;;;;1.85;1.02;;;;;;;7.58;95.07;99695.91;4922098;29;20233;-76
2023/03/26 02:30:10;;;;;;;2.00;1.30;;;;;;;7.59;95.81;99697.56;4921731;28;20705;-74
2023/03/26 02:32:42;;;;;;;3.60;1.60;;;;;;;7.56;95.96;99700.66;4932342;29;20191;-73
2023/03/26 02:35:14;;;;;;;2.70;1.40;;;;;;;7.47;96.57;99702.75;4934018;29;20218;-76
2023/03/26 02:37:49;;;;;;;1.50;1.40;;;;;;;7.38;97.52;99704.03;4922390;29;20217;-75
2023/03/26 02:40:23;;;;;;;2.97;1.60;;;;;;;7.32;97.99;99708.38;4919915;29;20206;-76
2023/03/26 02:42:59;;;;;;;1.67;1.42;;;;;;;7.34;98.14;99710.88;4917750;29;20197;-75
2023/03/26 02:45:31;;;;;;;1.92;1.73;;;;;;;7.35;97.84;99716.06;4925019;29;20203;-74
2023/03/26 02:48:20;;;;;;;1.55;1.35;;;;;;;7.44;98.11;99719.34;4928489;29;20286;-75
2023/03/26 02:50:55;;;;;;;2.53;1.90;;;;;;;7.52;97.44;99720.97;4916350;29;20208;-75
2023/03/26 02:53:52;;;;;;;2.35;2.15;;;;;;;7.51;97.00;99720.13;4921885;29;20204;-74
2023/03/26 02:56:48;;;;;;;3.00;1.90;;;;;;;7.51;96.72;99725.53;4938438;29;20212;-74
2023/03/26 02:59:40;;;;;;;3.47;1.80;;;;;;;7.53;96.05;99728.84;4921855;29;20268;-75
2023/03/26 03:02:43;;;;;;;2.53;2.22;;;;;;;7.60;96.25;99728.84;4862910;29;20221;-75
2023/03/26 03:05:32;;;;;;;2.20;1.67;;;;;;;7.62;95.47;99727.56;4942531;29;20190;-76
2023/03/26 03:08:18;;;;;;;7.32;2.53;;;;;;;7.65;95.26;99727.16;4950037;29;20758;-72
2023/03/26 03:11:20;;;;;;;4.25;2.10;;;;;;;7.71;95.29;99731.69;4925707;29;20696;-73
2023/03/26 03:13:55;;;;;;;1.63;1.48;;;;;;;7.78;95.26;99742.47;4931969;29;20206;-74
2023/03/26 03:16:33;;;;;;;3.38;2.17;;;;;;;7.79;94.64;99738.72;4912854;29;20202;-74
2023/03/26 03:19:09;;;;;;;6.05;2.60;;;;;;;7.79;94.25;99736.03;4934933;29;20238;-75
2023/03/26 03:21:42;;;;;;;1.98;1.77;;;;;;;7.83;93.81;99729.19;4917434;29;20212;-76
2023/03/26 03:24:12;;;;;;;3.65;2.20;;;;;;;7.83;94.22;99730.00;4918758;29;20252;-75
2023/03/26 03:26:47;;;;;;;1.98;1.77;;;;;;;7.84;93.80;99737.03;4921860;29;20709;-74
2023/03/26 03:29:31;;;;;;;4.40;2.47;;;;;;;7.81;93.49;99737.47;4925409;29;20275;-74
2023/03/26 03:32:24;;;;;;;3.60;2.20;;;;;;;7.82;93.22;99735.59;4935440;29;20210;-75
2023/03/26 03:35:00;;;;;;;2.20;1.42;;;;;;;7.92;93.35;99732.47;4928211;29;20263;-74
2023/03/26 03:37:33;;;;;;;2.88;2.22;;;;;;;7.88;93.21;99734.75;4919997;28;20578;-74
2023/03/26 03:40:06;;;;;;;2.15;1.52;;;;;;;7.94;93.41;99747.34;4915633;29;20200;-75
2023/03/26 03:42:37;;;;;;;2.95;1.80;;;;;;;7.90;93.38;99746.13;4922212;29;20201;-74
2023/03/26 03:45:10;;;;;;;4.55;2.13;;;;;;;7.89;93.12;99743.66;4909758;29;20207;-72
2023/03/26 03:48:02;;;;;;;5.68;2.15;;;;;;;7.90;93.39;99754.22;4891886;29;20232;-75
2023/03/26 03:50:43;;;;;;;2.55;2.22;;;;;;;7.90;94.15;99748.81;4926618;29;20224;-75
2023/03/26 03:53:28;;;;;;;4.85;1.90;;;;;;;7.86;94.64;99745.75;4919373;29;20222;-75
2023/03/26 03:56:00;;;;;;;5.00;2.20;;;;;;;7.94;94.96;99744.66;4921567;29;20273;-74
2023/03/26 03:58:51;;;;;;;4.80;2.47;;;;;;;7.94;94.66;99751.94;4934372;29;20231;-75
2023/03/26 04:01:31;;;;;;;2.03;1.73;;;;;;;7.97;94.31;99746.13;4923188;29;20203;-74
2023/03/26 04:04:11;;;;;;;3.75;1.95;;;;;;;7.96;94.25;99749.84;4913963;29;20213;-76
2023/03/26 04:06:51;;;;;;;3.58;2.60;;;;;;;7.86;93.95;99747.59;4922465;29;20212;-75
2023/03/26 04:09:24;;;;;;;4.30;2.03;;;;;;;7.85;94.48;99762.94;4926654;29;20230;-75
2023/03/26 04:11:58;;;;;;;11.52;2.08;;;;;;;7.80;94.94;99762.72;4921940;29;20200;-73
2023/03/26 04:14:41;;;;;;;3.85;2.22;;;;;;;7.81;95.42;99758.19;4919534;29;20221;-74
2023/03/26 04:17:16;;;;;;;6.07;2.78;;;;;;;7.75;94.94;99769.78;4918997;29;20204;-74
2023/03/26 04:19:52;;;;;;;2.90;1.90;;;;;;;7.69;95.36;99759.88;4919010;29;20236;-75
2023/03/26 04:22:33;;;;;;;6.38;2.20;;;;;;;7.76;96.16;99760.69;4923933;29;20224;-75
2023/03/26 04:25:06;;;;;;;4.60;2.78;;;;;;;7.84;94.95;99763.16;4966245;28;20222;-77
2023/03/26 04:27:42;;;;;;;4.75;2.42;;;;;;;7.82;94.91;99765.22;4954910;29;20216;-76
2023/03/26 04:30:33;;;;;;;3.97;1.83;;;;;;;7.82;94.84;99766.06;4938413;29;20209;-74
2023/03/26 04:33:15;;;;;;;8.52;2.42;;;;;;;7.93;94.57;99758.38;4926244;29;20677;-73
2023/03/26 04:35:48;;;;;;;3.20;2.17;;;;;;;7.99;94.19;99761.00;4922029;29;20227;-74
2023/03/26 04:38:23;;;;;;;6.05;1.95;;;;;;;7.92;94.03;99759.41;4921289;29;20222;-74
2023/03/26 04:40:58;;;;;;;5.05;1.60;;;;;;;7.90;94.11;99756.91;4929825;29;20209;-75
2023/03/26 04:43:51;;;;;;;3.13;1.90;;;;;;;7.99;93.69;99750.25;4938846;29;20581;-75
2023/03/26 04:46:42;;;;;;;5.72;2.28;;;;;;;7.86;93.59;99761.91;4937245;29;20208;-76
2023/03/26 04:49:23;;;;;;;2.80;1.75;;;;;;;7.77;94.01;99756.94;4920623;29;20224;-78
2023/03/26 04:51:55;;;;;;;2.17;1.50;;;;;;;7.84;94.93;99755.09;4932744;29;20224;-73
2023/03/26 04:54:58;;;;;;;2.78;1.60;;;;;;;7.91;92.93;99763.94;4911671;29;20204;-74
2023/03/26 04:57:33;;;;;;;2.97;1.55;;;;;;;7.93;93.44;99759.19;4921037;29;20293;-76
2023/03/26 05:00:18;;;;;;;4.55;2.60;;;;;;;7.94;93.13;99763.50;4933723;29;20226;-73
2023/03/26 05:02:56;;;;;;;2.63;1.50;;;;;;;7.85;93.13;99765.63;4909891;29;20213;-74
2023/03/26 05:05:28;;;;;;;3.60;1.60;;;;;;;7.86;92.27;99767.28;4919035;29;20582;-74
2023/03/26 05:08:04;;;;;;;4.22;2.08;;;;;;;7.85;92.33;99771.00;4915829;29;20275;-72
2023/03/26 05:10:34;;;;;;;4.93;2.35;;;;;;;7.82;92.90;99776.00;4927728;29;20933;-75
2023/03/26 05:13:10;;;;;;;1.80;1.58;;;;;;;7.91;92.85;99763.94;4924719;29;20238;-75
2023/03/26 05:15:45;;;;;;;5.22;1.58;;;;;;;7.76;92.66;99771.44;4923086;29;20218;-73
2023/03/26 05:18:38;;;;;;;2.95;1.73;;;;;;;7.79;93.17;99765.66;4919181;29;20600;-75
2023/03/26 05:21:15;;;;;;;3.65;1.63;;;;;;;7.84;93.02;99763.97;4919429;29;20698;-74
2023/03/26 05:23:49;;;;;;;4.00;2.03;;;;;;;7.86;93.04;99767.28;4921693;29;20210;-73
2023/03/26 05:26:23;;;;;;;2.50;1.40;;;;;;;7.86;93.21;99766.44;4927870;29;20211;-74
2023/03/26 05:28:55;;;;;;;5.45;1.90;;;;;;;7.92;93.50;99768.31;4922645;29;20235;-72
2023/03/26 05:31:32;;;;;;;3.83;2.53;;;;;;;8.00;93.21;99769.94;4942403;29;20195;-74
2023/03/26 05:34:03;;;;;;;2.40;1.38;;;;;;;8.01;93.21;99758.94;4941578;29;20205;-74
2023/03/26 05:39:36;;;;;;;2.80;1.90;;;;;;;7.93;93.52;99777.22;4941056;29;20212;-84
2023/03/26 05:49:23;;;;;;;5.28;2.78;;;;;;;7.94;93.12;99771.59;4917345;29;20198;-86
2023/03/26 05:52:14;;;;;;;4.50;1.60;;;;;;;7.95;93.62;99775.13;4903178;29;20210;-84
2023/03/26 05:55:08;;;;;;;5.90;2.13;;;;;;;7.83;94.33;99778.50;4926689;29;20183;-85
2023/03/26 06:01:46;;;;;;;2.22;1.90;;;;;;;7.75;96.66;99777.88;4909278;29;20207;-84
2023/03/26 06:04:41;;;;;;;4.22;2.28;;;;;;;7.57;98.88;99786.63;4918761;29;20205;-86
2023/03/26 06:07:33;;;;;;;3.90;2.28;;;;;;;7.43;100.00;99799.25;4909057;29;20255;-85
2023/03/26 06:10:56;;;;;;;2.90;1.33;;;;;;;7.22;98.31;99795.94;4915666;29;20249;-83
2023/03/26 06:13:35;;;;;;;4.65;1.55;;;;;;;7.06;96.67;99789.13;4916297;29;20270;-85
2023/03/26 06:20:10;;;;;;;3.35;1.77;;;;;;;7.00;96.35;99800.72;4915884;29;20249;-85
2023/03/26 06:26:25;;;;;;;4.18;1.15;;;;;;;6.85;96.11;99808.97;4905216;29;20227;-84
2023/03/26 06:29:38;;;;;;;3.28;1.45;;;;;;;6.93;97.22;99798.00;4907130;29;20231;-85
2023/03/26 06:32:19;;;;;;;3.78;1.70;;;;;;;7.16;97.46;99797.63;4933028;29;20195;-84
2023/03/26 06:34:59;;;;;;;3.70;1.50;;;;;;;7.20;95.79;99809.63;4918690;29;20204;-84
2023/03/26 06:37:43;;;;;;;9.25;3.78;;;;;;;7.37;95.42;99799.25;4918233;29;20249;-85
2023/03/26 06:40:59;;;;;;;2.92;1.60;;;;;;;7.53;94.40;99806.09;4895340;29;20235;-85
2023/03/26 06:55:53;;;;;;;3.55;1.63;;;;;;;8.15;89.20;99798.28;4887718;29;20203;-87
2023/03/26 07:25:19;;;;;;;1.40;1.08;;;;;;;9.18;81.42;99806.22;4899463;29;20281;-84
2023/03/26 07:28:13;;;;;;;2.90;2.10;;;;;;;9.08;78.87;99798.63;4897559;29;20248;-86
2023/03/26 07:31:25;;;;;;;1.73;1.10;;;;;;;9.04;80.09;99803.63;4882002;29;20223;-86
2023/03/26 07:38:19;;;;;;;2.83;1.75;;;;;;;9.35;79.43;99804.63;4885617;29;20258;-84
2023/03/26 07:41:23;;;;;;;4.07;2.75;;;;;;;9.30;78.99;99804.47;4866879;29;20223;-85
2023/03/26 07:44:44;;;;;;;3.05;1.58;;;;;;;9.24;78.76;99797.25;4879856;29;20189;-84
2023/03/26 07:47:36;;;;;;;3.05;1.65;;;;;;;9.32;78.82;99805.06;4878215;29;20228;-84
2023/03/26 07:50:37;;;;;;;4.47;1.40;;;;;;;9.23;79.24;99806.41;4886230;29;20376;-86
2023/03/26 07:53:24;;;;;;;4.40;1.20;;;;;;;9.04;79.17;99806.34;4878839;29;20200;-85
2023/03/26 07:56:21;;;;;;;2.78;1.05;;;;;;;8.95;79.42;99810.34;4882462;29;20235;-86
2023/03/26 07:59:15;;;;;;;3.20;1.90;;;;;;;8.90;80.08;99802.06;4886510;29;20228;-86
2023/03/26 08:02:44;;;;;;;2.40;1.92;;;;;;;9.13;80.80;99801.50;4898689;29;20649;-86
2023/03/26 08:06:08;;;;;;;3.05;1.42;;;;;;;9.11;80.82;99796.31;4882972;29;20616;-87
2023/03/26 08:09:13;;;;;;;6.35;2.00;;;;;;;9.16;80.88;99801.88;4869181;29;20234;-85
2023/03/26 08:12:21;;;;;;;5.30;1.67;;;;;;;9.00;82.05;99807.00;4882271;29;20312;-84
2023/03/26 08:15:04;;;;;;;6.85;1.90;;;;;;;9.12;81.59;99800.66;4889470;29;20211;-86
2023/03/26 08:17:46;;;;;;;7.28;1.80;;;;;;;9.22;81.07;99797.47;4916698;29;20280;-84
2023/03/26 08:20:40;;;;;;;7.05;1.67;;;;;;;9.36;79.24;99800.88;4924000;29;20242;-83
2023/03/26 08:23:22;;;;;;;3.67;1.52;;;;;;;9.54;79.30;99799.06;4915850;29;20219;-85
2023/03/26 08:26:10;;;;;;;3.88;2.17;;;;;;;9.53;78.01;99794.72;4916933;29;20298;-85
2023/03/26 08:28:55;;;;;;;3.45;1.73;;;;;;;9.68;77.18;99798.94;4907049;29;20228;-85
2023/03/26 08:31:34;;;;;;;3.65;1.65;;;;;;;9.89;75.97;99795.81;4904319;29;20357;-86
2023/03/26 08:34:12;;;;;;;3.03;1.65;;;;;;;10.26;75.61;99802.88;4906272;29;20295;-84
2023/03/26 08:36:44;;;;;;;3.25;1.85;;;;;;;10.35;74.79;99801.56;4906301;29;20243;-84
2023/03/26 08:39:21;;;;;;;3.03;1.63;;;;;;;10.36;73.81;99808.59;4904573;29;20212;-83
2023/03/26 08:42:40;;;;;;;4.63;1.73;;;;;;;9.96;74.13;99792.00;4905298;29;20516;-83
2023/03/26 08:45:46;;;;;;;1.95;1.65;;;;;;;9.66;74.18;99799.16;4874282;29;20209;-84
2023/03/26 08:48:56;;;;;;;2.22;1.40;;;;;;;9.35;76.01;99793.81;4906297;29;20227;-83
2023/03/26 08:55:52;;;;;;;4.80;2.13;;;;;;;8.97;78.66;99794.75;4907384;29;20225;-85
2023/03/26 09:02:57;;;;;;;4.18;2.00;;;;;;;8.79;83.03;99789.28;4895166;29;20686;-86
2023/03/26 09:06:15;;;;;;;2.47;2.13;;;;;;;8.92;82.73;99788.34;4874265;29;20669;-87
2023/03/26 09:09:32;;;;;;;2.97;1.90;;;;;;;8.93;83.81;99773.81;4897428;29;20326;-85
2023/03/26 09:25:51;;;;;;;4.68;1.85;;;;;;;7.94;89.60;99779.69;4881537;29;20211;-84
2023/03/26 09:29:18;;;;;;;8.15;2.53;;;;;;;7.64;92.11;99789.31;4898613;29;20228;-84
2023/03/26 09:36:39;;;;;;;7.60;1.80;;;;;;;7.17;93.69;99791.19;4868254;29;20215;-84
2023/03/26 09:50:03;;;;;;;5.47;4.95;;;;;;;6.97;97.26;99793.06;4917690;29;20205;-84
2023/03/26 09:54:05;;;;;;;12.93;2.55;;;;;;;7.18;97.10;99795.53;4905259;29;20206;-84
2023/03/26 09:56:57;;;;;;;9.00;2.15;;;;;;;7.25;97.58;99796.38;4822001;29;20314;-84
2023/03/26 10:00:33;;;;;;;5.18;1.95;;;;;;;7.18;96.63;99800.91;4829205;29;20243;-84
2023/03/26 10:03:45;;;;;;;11.15;2.15;;;;;;;7.01;96.80;99799.69;4898918;29;20213;-84
2023/03/26 10:07:12;;;;;;;;;;;;;;;;;;;;;
2023/03/26 10:10:10;;;;;;;4.95;2.05;;;;;;;7.00;96.19;99798.03;4916390;29;20682;-83
2023/03/26 10:16:54;;;;;;;4.53;2.60;;;;;;;7.94;94.61;99795.84;4904491;29;20250;-84
2023/03/26 10:23:59;;;;;;;4.63;2.42;;;;;;;8.14;90.69;99785.84;4903775;29;20205;-83
2023/03/26 10:31:41;;;;;;;13.38;3.10;;;;;;;8.28;89.48;99782.03;4908157;29;20489;-84
2023/03/26 10:56:48;;;;;;;6.53;3.77;;;;;;;9.09;87.09;99790.31;6211336;22;1482989;-69
2023/03/26 10:59:19;;;;;;;6.20;3.88;;;;;;;9.01;86.50;99795.97;6254167;23;20193;-69
2023/03/26 11:02:05;;;;;;;6.75;3.28;;;;;;;9.29;86.23;99794.72;6227244;23;20168;-69
2023/03/26 11:04:47;;;;;;;5.30;2.83;;;;;;;9.73;85.25;99789.09;6254395;23;20569;-69
2023/03/26 11:07:26;;;;;;;7.30;3.63;;;;;;;9.90;82.74;99782.06;6253999;23;20229;-68
2023/03/26 11:10:02;;;;;;;6.70;3.10;;;;;;;9.84;82.64;99788.38;6254958;23;20157;-69
2023/03/26 11:12:41;;;;;;;5.18;3.70;;;;;;;9.98;81.43;99783.63;6253705;23;20554;-68
2023/03/26 11:15:24;;;;;;;8.05;3.10;;;;;;;10.19;81.94;99793.22;6253422;23;20150;-69
2023/03/26 11:18:06;;;;;;;11.43;2.40;;;;;;;10.42;81.64;99785.22;6253864;23;20729;-69
2023/03/26 11:20:40;;;;;;;8.25;2.33;;;;;;;10.39;78.40;99780.28;6253715;23;20349;-70
2023/03/26 11:23:34;;;;;;;5.93;3.10;;;;;;;10.11;80.69;99778.09;6226641;23;20190;-69
2023/03/26 11:26:11;;;;;;;6.43;2.40;;;;;;;10.16;81.15;99780.16;6249209;23;20519;-70
2023/03/26 11:29:24;;;;;;;6.80;2.45;;;;;;;9.82;80.78;99774.28;6226122;23;20193;-70
2023/03/26 11:32:06;;;;;;;6.55;2.78;;;;;;;10.08;80.74;99778.53;6253258;23;20177;-69
2023/03/26 11:34:38;;;;;;;7.70;2.93;;;;;;;10.54;78.98;99766.34;6252799;23;20579;-70
2023/03/26 11:37:32;;;;;;;4.20;2.80;;;;;;;10.36;78.46;99764.53;6253595;22;20408;31
2023/03/26 11:40:10;;;;;;;10.73;3.33;;;;;;;10.53;77.81;99760.13;6076872;23;20811;-76
2023/03/26 11:42:41;;;;;;;5.00;2.60;;;;;;;10.86;76.58;99765.88;6051605;23;20749;-77
2023/03/26 11:45:19;;;;;;;8.60;3.03;;;;;;;10.83;77.21;99763.63;6077231;23;20927;-76
2023/03/26 11:47:53;;;;;;;4.67;2.40;;;;;;;11.44;75.69;99762.44;6077120;23;20430;-75
2023/03/26 11:50:28;;;;;;;5.80;3.00;;;;;;;11.27;74.16;99765.03;6075687;23;20414;-73
2023/03/26 11:53:03;;;;;;;5.40;2.60;;;;;;;11.41;73.74;99756.66;6076285;23;20729;-74
2023/03/26 11:55:34;;;;;;;3.40;2.93;;;;;;;11.20;71.56;99767.00;6077221;23;20408;-75
2023/03/26 11:58:18;;;;;;;3.20;1.90;;;;;;;11.53;71.88;99755.59;6076822;23;20439;-74
2023/03/26 12:00:52;;;;;;;3.10;2.07;;;;;;;11.43;70.79;99760.78;6078953;23;20357;-74
2023/03/26 12:03:23;;;;;;;2.37;1.70;;;;;;;11.61;71.97;99752.53;6080804;23;20957;-75
2023/03/26 12:06:01;;;;;;;2.80;2.00;;;;;;;11.74;72.13;99752.31;6084958;23;20442;-75
2023/03/26 12:08:39;;;;;;;6.40;2.37;;;;;;;11.21;71.94;99738.03;6088548;23;20407;-75
2023/03/26 12:11:18;;;;;;;3.57;2.17;;;;;;;11.57;71.30;99740.50;6089166;23;20418;-76
2023/03/26 12:13:55;;;;;;;3.50;2.73;;;;;;;11.73;70.10;99733.59;6091462;23;20388;-76
2023/03/26 12:16:27;;;;;;;5.27;2.40;;;;;;;12.06;68.73;99727.50;6093174;23;20395;-75
2023/03/26 12:19:04;;;;;;;7.87;2.23;;;;;;;12.28;68.26;99730.41;6092234;23;20448;-76
2023/03/26 12:21:46;;;;;;;8.83;2.30;;;;;;;12.08;66.84;99726.22;6092123;23;20380;-77
2023/03/26 12:24:29;;;;;;;5.37;2.40;;;;;;;12.20;67.98;99718.84;6067963;23;20370;-76
2023/03/26 12:27:02;;;;;;;4.33;2.50;;;;;;;12.27;67.87;99715.19;6092427;23;20451;-77
2023/03/26 12:29:33;;;;;;;4.23;2.30;;;;;;;12.53;67.57;99720.88;6089659;23;20415;-76
2023/03/26 12:32:13;;;;;;;3.83;2.27;;;;;;;12.40;65.03;99713.00;6090152;23;20407;-76
2023/03/26 12:34:42;;;;;;;6.50;2.10;;;;;;;12.63;65.87;99710.16;6063043;23;20382;-75
2023/03/26 12:37:35;;;;;;;5.63;2.50;;;;;;;12.13;64.13;99706.50;6089369;23;20366;-77
2023/03/26 12:40:26;;;;;;;7.63;2.80;;;;;;;12.14;63.49;99708.16;6084205;23;20381;-78
2023/03/26 12:42:57;;;;;;;2.70;1.47;;;;;;;11.86;63.88;99700.78;6077148;23;20381;-77
2023/03/26 12:45:50;;;;;;;3.67;2.10;;;;;;;11.90;64.18;99707.41;6071555;23;20481;-77
2023/03/26 12:48:41;;;;;;;3.97;1.40;;;;;;;12.09;63.40;99699.94;6070700;23;20456;-76
2023/03/26 12:51:19;;;;;;;3.10;1.80;;;;;;;12.20;62.92;99707.16;6070775;23;20388;-75
2023/03/26 12:54:06;;;;;;;13.00;2.00;;;;;;;12.52;60.67;99705.66;6070242;23;20478;-77
2023/03/26 12:56:42;;;;;;;2.10;1.90;;;;;;;12.98;60.05;99699.09;6069624;23;20419;-75
2023/03/26 12:59:29;;;;;;;2.10;1.70;;;;;;;13.34;58.82;99714.09;6071751;23;20530;-76
2023/03/26 13:02:14;;;;;;;2.17;1.97;;;;;;;13.15;58.24;99709.19;6073249;23;20416;-76
2023/03/26 13:05:16;;;;;;;5.10;1.57;;;;;;;12.75;59.31;99709.28;6070717;23;20404;-74
2023/03/26 13:08:07;;;;;;;5.97;1.53;;;;;;;12.25;62.05;99699.13;6043027;23;20435;-73
2023/03/26 13:11:06;;;;;;;2.80;1.63;;;;;;;12.28;61.99;99698.69;6070407;23;20908;-76
2023/03/26 13:14:00;;;;;;;2.23;1.63;;;;;;;12.00;61.19;99695.94;6059018;23;20418;-75
2023/03/26 13:16:40;;;;;;;3.80;1.70;;;;;;;11.89;60.83;99696.78;6074369;23;20351;-76
2023/03/26 13:19:14;;;;;;;2.60;1.67;;;;;;;12.05;59.52;99696.06;6086763;23;20492;-75
2023/03/26 13:22:01;;;;;;;2.20;1.20;;;;;;;11.85;59.51;99701.06;6083848;23;20439;-76
2023/03/26 13:24:42;;;;;;;7.53;2.07;;;;;;;11.75;60.59;99694.34;6082696;23;20419;-75
2023/03/26 13:27:21;;;;;;;2.47;1.40;;;;;;;11.98;59.91;99689.94;6072134;23;20410;-76
2023/03/26 13:30:00;;;;;;;3.90;1.60;;;;;;;12.07;59.77;99691.19;6076123;23;20401;-76
2023/03/26 13:32:41;;;;;;;2.77;1.77;;;;;;;11.86;60.34;99687.25;6073056;23;20405;-76
2023/03/26 13:35:26;;;;;;;3.20;1.63;;;;;;;12.09;59.95;99689.06;6089260;23;20384;-75
2023/03/26 13:38:05;;;;;;;1.87;1.37;;;;;;;12.17;59.39;99684.09;6096008;23;20450;-74
2023/03/26 13:40:42;;;;;;;1.97;1.33;;;;;;;12.09;59.05;99686.38;6103534;23;20383;-76
2023/03/26 13:43:26;;;;;;;4.20;2.40;;;;;;;11.64;59.95;99681.63;6099193;23;20399;-76
2023/03/26 13:46:00;;;;;;;7.83;1.83;;;;;;;11.67;58.42;99688.44;6098126;23;20391;-77
2023/03/26 13:48:35;;;;;;;1.83;1.23;;;;;;;11.41;58.93;99694.38;6072538;23;20487;-76
2023/03/26 13:51:09;;;;;;;1.77;1.13;;;;;;;11.40;59.38;99688.13;6098372;23;20851;-75
2023/03/26 13:53:47;;;;;;;3.83;1.53;;;;;;;11.71;59.68;99695.84;6098533;23;20360;-76
2023/03/26 13:56:23;;;;;;;1.93;1.13;;;;;;;11.97;58.95;99691.00;6098853;23;20375;-74
2023/03/26 13:59:00;;;;;;;2.10;1.20;;;;;;;11.39;57.68;99694.59;6099817;23;20439;-76
2023/03/26 14:01:34;;;;;;;2.50;1.60;;;;;;;11.69;57.32;99689.84;6098764;23;20500;-76
2023/03/26 14:04:10;;;;;;;1.50;1.03;;;;;;;11.74;57.60;99695.41;6098504;23;20354;-75
2023/03/26 14:06:47;;;;;;;2.23;1.20;;;;;;;11.65;57.81;99685.97;6098173;23;20907;-76
2023/03/26 14:09:25;;;;;;;3.33;1.50;;;;;;;11.67;58.39;99697.38;6095698;23;20408;-75
2023/03/26 14:12:25;;;;;;;3.63;1.30;;;;;;;11.62;59.55;99689.16;6097512;23;20361;-75
2023/03/26 14:14:58;;;;;;;5.87;1.50;;;;;;;11.50;59.02;99690.22;6097778;23;20458;-77
2023/03/26 14:17:35;;;;;;;5.57;1.53;;;;;;;11.37;59.76;99685.91;6097385;23;20357;-75
2023/03/26 14:20:28;;;;;;;2.47;1.33;;;;;;;11.69;60.69;99689.03;6098063;23;20926;-77
2023/03/26 14:23:14;;;;;;;2.13;1.60;;;;;;;12.11;59.77;99686.94;6082198;23;20411;-76
2023/03/26 14:25:59;;;;;;;2.20;1.40;;;;;;;12.01;58.48;99686.72;6097109;23;20381;-75
2023/03/26 14:29:08;;;;;;;1.73;1.40;;;;;;;11.74;59.13;99687.28;6097730;23;20416;-76
2023/03/26 14:31:43;;;;;;;3.03;2.00;;;;;;;12.22;57.60;99685.25;5980238;24;20588;-75
2023/03/26 14:34:28;;;;;;;3.60;1.93;;;;;;;12.37;56.82;99680.94;6077657;23;20440;-76
2023/03/26 14:37:23;;;;;;;2.00;1.60;;;;;;;11.97;57.47;99678.25;6071989;23;20372;-75
2023/03/26 14:40:17;;;;;;;1.97;1.27;;;;;;;11.64;57.30;99675.38;6068217;23;20422;-75
2023/03/26 14:42:57;;;;;;;3.23;1.30;;;;;;;11.76;57.54;99679.72;6069064;23;20384;-76
2023/03/26 14:45:51;;;;;;;3.70;1.77;;;;;;;12.02;56.46;99675.66;6068890;23;20375;-75
2023/03/26 14:49:02;;;;;;;1.67;1.40;;;;;;;12.09;56.31;99679.06;6043703;23;20461;-76
2023/03/26 14:51:59;;;;;;;6.23;2.13;;;;;;;12.24;55.64;99675.81;6068792;23;20382;-75
2023/03/26 14:54:32;;;;;;;4.43;1.37;;;;;;;11.97;56.90;99672.00;6067830;23;20386;-74
2023/03/26 14:57:39;;;;;;;2.83;1.60;;;;;;;11.89;56.70;99664.25;6067994;23;20373;-73
2023/03/26 15:00:42;;;;;;;2.30;1.70;;;;;;;11.80;57.94;99663.00;6069585;23;20696;-74
2023/03/26 15:03:47;;;;;;;2.60;1.30;;;;;;;11.98;57.69;99666.34;6073107;23;20396;-74
2023/03/26 15:06:47;;;;;;;4.23;1.80;;;;;;;11.54;57.94;99669.72;6077968;23;20451;-73
2023/03/26 15:10:13;;;;;;;2.93;1.77;;;;;;;11.50;58.38;99663.97;6083186;23;20419;-73
2023/03/26 15:13:03;;;;;;;2.20;1.47;;;;;;;11.36;59.30;99659.88;6038664;23;20479;-75
2023/03/26 15:16:03;;;;;;;2.70;1.80;;;;;;;11.52;59.35;99656.41;6076316;23;20399;-75
2023/03/26 15:19:08;;;;;;;3.30;2.30;;;;;;;11.50;59.59;99661.25;6073052;23;20433;-75
2023/03/26 15:22:24;;;;;;;5.03;2.07;;;;;;;11.34;60.21;99656.56;6049560;23;20439;-75
2023/03/26 15:25:26;;;;;;;3.73;1.37;;;;;;;11.09;60.34;99656.81;6074835;23;20358;-73
2023/03/26 15:28:32;;;;;;;3.97;1.83;;;;;;;10.95;61.11;99668.09;6086448;23;20456;-74